Airport View

Enter AWOS ICAO identifier for current METAR.

ex. KFNL

KRCM 210035Z AUTO 16007KT 10SM CLR 24/18 A2999 RMK AO2

21 Sep 2019 00:24

Frequency: 119.575

Phone: 660-422-7010

Other Area AWOS: KSZL - KGLY - KLRY - KLXT

TAF KSZL 201900Z 2019/2201 16010G15KT 9999 SCT040 BKN070 BKN200 QNH2997INS BECMG 2100/2101 19010KT 6000 -SHRA BKN030 OVC070 QNH3000INS BECMG 2104/2105 19012KT 9999 NSW OVC020 QNH3001INS BECMG 2118/2119 18012G20KT 6000 -SHRA BKN025 OVC050 QNH2994INS TEMPO 2123/2201 22020G30KT 3200 -TSRA BKN020CB OVC080 TX32/2021Z TN21/2111Z